Time;durP1;ratioP1;P1;durP2;ratioP2;P2;SDS_P1;SDS_P2;PMS_P1;PMS_P2;Temp;Humidity;BMP_temperature;BMP_pressure;BME280_temperature;BME280_humidity;BME280_pressure;Samples;Min_cycle;Max_cycle;Signal;HPM_P1;HPM_P2
2022/10/15 00:00:47;;;;;;;42.15;28.90;;;;;;;17.05;66.79;101263.91;4988518;28;20133;-76
2022/10/15 00:03:14;;;;;;;49.35;29.13;;;;;;;16.91;66.88;101236.84;4986887;28;20403;-77
2022/10/15 00:05:41;;;;;;;43.30;26.95;;;;;;;16.97;67.15;101257.69;4988587;28;20054;-78
2022/10/15 00:08:11;;;;;;;46.25;27.88;;;;;;;16.99;67.31;101269.94;4987181;28;20104;-77
2022/10/15 00:10:37;;;;;;;42.65;28.05;;;;;;;16.94;67.04;101274.06;4988359;28;20065;-77
2022/10/15 00:13:05;;;;;;;46.78;27.02;;;;;;;16.65;67.54;101229.66;4986558;28;20249;-78
2022/10/15 00:15:32;;;;;;;47.92;28.98;;;;;;;16.99;67.39;101282.47;4987160;28;20045;-76
2022/10/15 00:17:58;;;;;;;40.55;26.50;;;;;;;17.02;67.67;101274.97;4986859;28;20141;-78
2022/10/15 00:20:25;;;;;;;43.80;28.23;;;;;;;16.95;67.34;101255.16;5002578;28;20077;-76
2022/10/15 00:22:52;;;;;;;39.17;27.63;;;;;;;17.02;67.61;101266.91;5002180;28;20082;-76
2022/10/15 00:25:18;;;;;;;43.08;26.30;;;;;;;16.96;67.42;101246.09;5001910;28;20050;-77
2022/10/15 00:27:45;;;;;;;36.83;25.85;;;;;;;16.99;67.40;101242.25;5000470;28;20051;-78
2022/10/15 00:30:12;;;;;;;44.05;26.75;;;;;;;17.23;67.08;101258.44;5001264;28;20526;-79
2022/10/15 00:32:39;;;;;;;37.97;23.63;;;;;;;17.29;66.52;101257.75;5001647;28;20459;-77
2022/10/15 00:35:06;;;;;;;42.38;27.60;;;;;;;17.00;66.43;101204.53;5000991;28;20387;-78
2022/10/15 00:37:33;;;;;;;39.92;27.58;;;;;;;17.18;66.44;101238.44;4986045;28;20133;-77
2022/10/15 00:40:00;;;;;;;42.05;26.63;;;;;;;17.32;66.07;101253.06;4985264;28;20054;-77
2022/10/15 00:42:33;;;;;;;37.03;26.48;;;;;;;17.05;66.22;101206.72;5000660;28;20415;-78
2022/10/15 00:44:59;;;;;;;35.45;25.10;;;;;;;17.04;66.32;101199.69;4985303;28;20072;-76
2022/10/15 00:47:38;;;;;;;38.75;24.55;;;;;;;17.24;66.58;101237.78;4984734;28;20275;-76
2022/10/15 00:50:13;;;;;;;39.13;25.10;;;;;;;17.20;66.21;101220.34;4986272;28;20054;-77
2022/10/15 00:52:45;;;;;;;36.95;24.63;;;;;;;17.22;66.15;101224.53;4986326;28;20480;-79
2022/10/15 00:55:42;;;;;;;35.85;25.85;;;;;;;16.99;66.66;101200.19;4985509;28;20136;-77
2022/10/15 00:58:15;;;;;;;36.50;25.35;;;;;;;17.04;66.86;101205.91;4985073;28;20085;-78
2022/10/15 01:00:42;;;;;;;41.33;24.25;;;;;;;17.03;66.96;101206.06;4985176;28;20492;-77
2022/10/15 01:03:11;;;;;;;36.75;25.25;;;;;;;16.95;67.06;101189.94;4982603;28;20062;-77
2022/10/15 01:05:39;;;;;;;40.13;24.40;;;;;;;16.87;66.47;101177.38;4986102;28;20077;-75
2022/10/15 01:08:06;;;;;;;37.97;25.45;;;;;;;16.99;66.57;101213.59;4986063;28;20046;-77
2022/10/15 01:11:03;;;;;;;38.03;25.55;;;;;;;16.86;67.00;101208.69;4984427;28;20401;-78
2022/10/15 01:13:45;;;;;;;35.22;24.13;;;;;;;16.40;66.94;101151.00;4977512;28;20501;-78
2022/10/15 01:16:23;;;;;;;34.75;23.60;;;;;;;16.60;67.57;101191.78;4984922;28;20499;-77
2022/10/15 01:18:57;;;;;;;37.05;24.02;;;;;;;16.61;67.65;101193.50;4983667;28;20046;-78
2022/10/15 01:21:53;;;;;;;33.42;24.10;;;;;;;16.69;67.86;101214.13;4983511;28;20054;-78
2022/10/15 01:24:53;;;;;;;37.50;24.63;;;;;;;16.60;68.08;101197.16;4974592;28;20082;-78
2022/10/15 01:27:30;;;;;;;35.35;24.45;;;;;;;16.66;68.16;101197.34;4984026;28;20413;-78
2022/10/15 01:30:23;;;;;;;38.03;25.08;;;;;;;16.68;68.65;101194.53;4983887;28;20050;-76
2022/10/15 01:33:10;;;;;;;35.83;24.08;;;;;;;16.70;68.63;101197.03;4980654;28;20449;-78
2022/10/15 01:35:46;;;;;;;43.97;24.40;;;;;;;16.72;68.60;101195.03;4966021;28;20046;-78
2022/10/15 01:38:36;;;;;;;36.78;24.63;;;;;;;16.71;68.58;101202.22;4982921;28;20047;-76
2022/10/15 01:41:09;;;;;;;46.00;25.85;;;;;;;16.53;68.34;101177.34;4984060;28;20469;-79
2022/10/15 01:43:59;;;;;;;44.20;25.88;;;;;;;16.49;68.63;101182.22;4984504;28;20054;-77
2022/10/15 01:46:36;;;;;;;42.05;24.77;;;;;;;16.63;68.77;101212.94;4984830;28;20141;-78
2022/10/15 01:49:05;;;;;;;38.80;25.23;;;;;;;16.52;68.76;101207.84;4984106;28;20046;-77
2022/10/15 01:51:35;;;;;;;37.38;25.35;;;;;;;16.64;68.67;101219.97;4983615;28;20054;-76
2022/10/15 01:54:06;;;;;;;38.45;22.92;;;;;;;16.68;68.62;101210.59;4983010;28;20054;-77
2022/10/15 01:56:36;;;;;;;34.70;23.42;;;;;;;16.71;68.48;101215.63;4982856;28;20242;-77
2022/10/15 01:59:04;;;;;;;37.15;24.42;;;;;;;16.76;68.45;101213.31;4986685;28;20061;-78
2022/10/15 02:01:30;;;;;;;40.05;25.17;;;;;;;16.80;68.49;101209.34;4988727;28;20116;-78
2022/10/15 02:03:57;;;;;;;37.42;25.60;;;;;;;16.79;68.41;101196.91;4987499;28;20061;-78
2022/10/15 02:06:28;;;;;;;38.90;24.10;;;;;;;16.30;67.83;101119.00;4987781;28;20141;-76
2022/10/15 02:09:20;;;;;;;40.67;24.13;;;;;;;16.79;68.51;101202.28;4987877;28;20112;-76
2022/10/15 02:11:59;;;;;;;37.42;25.40;;;;;;;16.15;68.27;101108.06;4987674;28;20586;-77
2022/10/15 02:14:57;;;;;;;42.78;23.88;;;;;;;16.44;68.89;101155.91;4989163;28;20329;-78
2022/10/15 02:17:34;;;;;;;44.00;24.73;;;;;;;16.79;68.58;101212.19;5003429;28;20054;-77
2022/10/15 02:20:11;;;;;;;41.40;25.50;;;;;;;16.75;68.46;101208.09;4987427;28;20049;-76
2022/10/15 02:22:48;;;;;;;40.45;23.67;;;;;;;16.63;68.61;101188.81;5002891;28;20081;-77
2022/10/15 02:25:21;;;;;;;37.03;24.45;;;;;;;16.66;69.07;101192.00;4988159;28;20145;-77
2022/10/15 02:27:51;;;;;;;36.45;25.25;;;;;;;16.62;68.89;101171.88;4986680;28;20042;-78
2022/10/15 02:30:19;;;;;;;38.45;23.00;;;;;;;16.49;69.00;101139.34;5002087;28;20142;-78
2022/10/15 02:32:50;;;;;;;37.95;24.25;;;;;;;16.38;68.84;101104.78;5002216;28;20400;-77
2022/10/15 02:35:21;;;;;;;38.58;23.73;;;;;;;16.63;68.26;101133.34;5002348;28;20054;-78
2022/10/15 02:37:52;;;;;;;37.30;23.50;;;;;;;16.95;68.38;101173.84;4986882;28;20109;-78
2022/10/15 02:40:26;;;;;;;36.53;21.77;;;;;;;16.90;68.22;101160.09;4986683;28;20046;-77
2022/10/15 02:42:54;;;;;;;34.20;22.08;;;;;;;16.97;68.30;101167.31;4985969;28;20560;-78
2022/10/15 02:45:21;;;;;;;39.65;22.98;;;;;;;17.07;68.15;101167.19;4987257;28;20046;-77
2022/10/15 02:47:47;;;;;;;40.05;23.63;;;;;;;17.09;68.30;101181.25;4986740;28;20108;-78
2022/10/15 02:50:15;;;;;;;38.75;21.67;;;;;;;16.97;68.26;101163.81;4987854;28;20046;-76
2022/10/15 02:52:41;;;;;;;33.63;22.13;;;;;;;16.88;68.48;101160.25;4986750;28;20448;-79
2022/10/15 02:55:08;;;;;;;35.28;21.33;;;;;;;17.06;68.09;101192.31;4986628;28;20042;-78
2022/10/15 02:57:35;;;;;;;32.55;21.33;;;;;;;17.06;67.83;101186.94;4989660;28;20536;-78
2022/10/15 03:00:03;;;;;;;29.33;20.60;;;;;;;17.11;67.79;101189.97;4991387;28;20153;-76
2022/10/15 03:02:30;;;;;;;32.78;20.83;;;;;;;17.03;67.82;101176.53;4992711;28;20085;-78
2022/10/15 03:04:56;;;;;;;35.90;21.60;;;;;;;17.00;67.28;101171.53;5004840;28;20564;-77
2022/10/15 03:07:23;;;;;;;26.08;20.48;;;;;;;17.03;67.58;101174.69;4987159;28;20428;-78
2022/10/15 03:09:50;;;;;;;36.50;20.80;;;;;;;17.04;67.81;101170.19;4986695;28;20074;-78
2022/10/15 03:12:19;;;;;;;29.63;20.25;;;;;;;16.99;67.67;101175.19;5002464;28;20419;-77
2022/10/15 03:14:46;;;;;;;35.95;23.08;;;;;;;16.91;67.97;101173.31;4986584;28;20517;-78
2022/10/15 03:17:12;;;;;;;31.10;20.13;;;;;;;16.76;68.28;101170.41;5002637;28;20141;-79
2022/10/15 03:19:42;;;;;;;31.58;21.30;;;;;;;16.74;68.35;101176.94;5001967;28;20050;-77
2022/10/15 03:22:12;;;;;;;34.53;20.98;;;;;;;16.54;68.89;101139.69;4987302;28;20046;-78
2022/10/15 03:24:39;;;;;;;30.50;20.45;;;;;;;16.75;68.51;101158.03;4986216;28;20054;-77
2022/10/15 03:27:06;;;;;;;31.63;19.95;;;;;;;16.74;68.43;101156.31;4986095;28;20466;-77
2022/10/15 03:29:32;;;;;;;34.47;21.20;;;;;;;16.80;68.51;101161.09;4985826;28;20191;-77
2022/10/15 03:31:59;;;;;;;36.20;21.15;;;;;;;16.53;68.48;101121.06;5002044;28;20165;-76
2022/10/15 03:34:26;;;;;;;30.85;20.85;;;;;;;16.64;68.34;101150.28;4986161;28;20194;-78
2022/10/15 03:36:52;;;;;;;32.15;21.40;;;;;;;16.59;68.92;101152.59;4986853;28;20536;-76
2022/10/15 03:39:19;;;;;;;29.17;21.00;;;;;;;16.44;68.97;101129.09;4985474;28;20363;-77
2022/10/15 03:41:46;;;;;;;32.92;20.13;;;;;;;16.50;69.17;101142.84;4985841;28;20046;-78
2022/10/15 03:44:12;;;;;;;32.40;22.10;;;;;;;16.45;69.16;101140.66;4986084;28;20054;-77
2022/10/15 03:46:39;;;;;;;36.03;21.92;;;;;;;16.43;69.39;101148.88;4985856;28;20408;-76
2022/10/15 03:49:06;;;;;;;36.58;21.52;;;;;;;16.08;69.53;101098.16;4986021;28;20078;-79
2022/10/15 03:51:32;;;;;;;31.35;21.17;;;;;;;16.36;69.85;101145.16;5002314;28;20157;-78
2022/10/15 03:53:59;;;;;;;32.40;21.73;;;;;;;16.34;70.01;101144.47;4985463;28;20057;-78
2022/10/15 03:56:26;;;;;;;30.80;20.02;;;;;;;16.35;69.57;101151.50;4985610;28;20049;-78
2022/10/15 03:58:52;;;;;;;33.80;21.00;;;;;;;15.77;70.07;101071.88;4985603;28;20049;-78
2022/10/15 04:01:19;;;;;;;34.13;20.70;;;;;;;16.26;70.29;101179.25;4985977;28;20062;-77
2022/10/15 04:03:46;;;;;;;30.27;20.23;;;;;;;15.97;70.10;101142.09;4986391;28;20512;-77
2022/10/15 04:06:13;;;;;;;28.63;20.35;;;;;;;15.98;70.28;101149.97;4985763;28;20259;-76
2022/10/15 04:08:39;;;;;;;32.92;21.85;;;;;;;16.09;70.33;101182.84;5001662;28;20050;-76
2022/10/15 04:11:06;;;;;;;34.05;21.05;;;;;;;16.11;70.79;101183.53;4985004;28;20046;-76
2022/10/15 04:13:32;;;;;;;28.55;19.13;;;;;;;16.10;70.95;101184.53;5001775;28;20054;-77
2022/10/15 04:15:59;;;;;;;31.75;20.65;;;;;;;16.02;70.48;101161.22;5001324;28;20877;-77
2022/10/15 04:18:26;;;;;;;30.67;20.55;;;;;;;15.98;70.95;101147.28;5001760;28;20081;-78
2022/10/15 04:20:52;;;;;;;34.00;21.67;;;;;;;16.00;70.84;101153.34;5001443;28;20058;-78
2022/10/15 04:23:19;;;;;;;30.90;20.63;;;;;;;15.91;70.32;101138.22;5001569;28;20297;-78
2022/10/15 04:25:46;;;;;;;34.58;21.77;;;;;;;16.17;70.18;101185.59;4985444;28;20062;-75
2022/10/15 04:28:12;;;;;;;36.13;21.83;;;;;;;15.93;70.68;101144.25;5001077;28;20348;-77
2022/10/15 04:30:39;;;;;;;29.50;20.35;;;;;;;16.03;70.73;101169.06;5001164;28;20058;-77
2022/10/15 04:33:06;;;;;;;32.38;21.10;;;;;;;15.97;70.78;101164.38;4984035;28;20050;-78
2022/10/15 04:35:33;;;;;;;34.20;19.90;;;;;;;15.73;70.82;101116.03;4999968;28;20497;-77
2022/10/15 04:38:01;;;;;;;29.25;19.52;;;;;;;16.00;70.83;101158.69;4984118;28;20104;-77
2022/10/15 04:40:27;;;;;;;33.78;20.05;;;;;;;15.73;70.54;101102.66;5005256;28;20057;-77
2022/10/15 04:42:54;;;;;;;31.15;19.80;;;;;;;16.15;70.61;101166.16;5010458;28;20064;-78
2022/10/15 04:45:21;;;;;;;29.00;17.52;;;;;;;16.25;70.26;101156.16;4981023;28;20138;-78
2022/10/15 04:47:50;;;;;;;30.90;18.80;;;;;;;16.18;69.93;101128.31;4965019;28;20337;-77
2022/10/15 04:50:20;;;;;;;31.02;18.75;;;;;;;16.34;69.83;101149.81;4965719;28;20058;-78
2022/10/15 04:52:47;;;;;;;27.92;19.25;;;;;;;16.00;69.92;101098.94;4987092;28;20106;-78
2022/10/15 04:55:14;;;;;;;29.95;18.40;;;;;;;16.17;69.85;101153.44;4997319;28;20065;-76
2022/10/15 04:57:40;;;;;;;31.85;18.92;;;;;;;16.04;70.00;101135.09;4964074;28;20323;-77
2022/10/15 05:00:08;;;;;;;31.63;17.58;;;;;;;15.85;70.15;101109.41;4964418;28;20463;-76
2022/10/15 05:02:35;;;;;;;22.42;17.38;;;;;;;16.03;70.45;101153.00;4968986;28;20050;-78
2022/10/15 05:05:03;;;;;;;29.35;16.60;;;;;;;16.06;70.44;101169.78;4984501;28;20133;-77
2022/10/15 05:07:30;;;;;;;28.75;16.05;;;;;;;16.01;70.59;101180.94;5004206;28;20157;-77
2022/10/15 05:09:58;;;;;;;27.98;17.00;;;;;;;15.98;70.82;101184.78;5004694;28;20145;-80
2022/10/15 05:12:24;;;;;;;21.60;15.02;;;;;;;15.93;70.51;101178.22;5015560;28;20045;-76
2022/10/15 05:14:51;;;;;;;25.63;16.17;;;;;;;16.03;70.24;101200.38;5004388;28;20369;-78
2022/10/15 05:17:18;;;;;;;27.58;15.60;;;;;;;16.00;70.14;101190.81;5001952;28;20618;-77
2022/10/15 05:19:44;;;;;;;24.08;16.23;;;;;;;15.85;69.75;101173.66;4985350;28;20100;-78
2022/10/15 05:22:11;;;;;;;21.02;15.75;;;;;;;16.06;69.92;101204.59;4994550;28;20508;-77
2022/10/15 05:24:37;;;;;;;25.48;15.90;;;;;;;15.91;69.91;101188.25;4985629;28;20500;-76
2022/10/15 05:27:04;;;;;;;27.92;16.42;;;;;;;16.03;69.93;101206.56;4984738;28;20475;-77
2022/10/15 05:29:31;;;;;;;25.33;16.35;;;;;;;16.08;69.91;101198.06;4984821;28;20101;-78
2022/10/15 05:31:58;;;;;;;27.30;18.23;;;;;;;16.12;69.38;101193.25;5000761;28;20488;-78
2022/10/15 05:34:29;;;;;;;25.98;16.55;;;;;;;15.73;69.37;101130.25;5003166;28;20464;-76
2022/10/15 05:36:55;;;;;;;32.85;17.80;;;;;;;16.11;69.01;101189.72;5004211;28;20487;-77
2022/10/15 05:39:22;;;;;;;32.47;18.85;;;;;;;15.92;69.21;101161.34;4988091;28;20496;-78
2022/10/15 05:41:49;;;;;;;36.20;18.38;;;;;;;16.08;69.04;101191.88;5004589;28;20077;-78
2022/10/15 05:44:16;;;;;;;29.15;17.92;;;;;;;16.12;69.33;101190.56;4997273;28;20416;-78
2022/10/15 05:46:43;;;;;;;36.67;18.48;;;;;;;16.20;69.36;101199.47;5008864;28;20475;-78
2022/10/15 05:49:11;;;;;;;32.03;18.35;;;;;;;16.17;69.65;101213.19;4998673;28;20053;-78
2022/10/15 05:51:38;;;;;;;24.90;17.55;;;;;;;16.18;68.96;101212.19;4988130;28;20140;-78
2022/10/15 05:54:04;;;;;;;27.02;17.73;;;;;;;16.07;69.36;101190.19;4987994;28;20046;-76
2022/10/15 05:56:31;;;;;;;28.88;16.67;;;;;;;16.08;69.10;101197.22;4987591;28;20137;-77
2022/10/15 05:58:58;;;;;;;28.33;15.63;;;;;;;15.98;69.13;101182.09;4988321;28;20062;-78
2022/10/15 06:01:25;;;;;;;27.27;15.48;;;;;;;16.21;69.06;101217.25;4987946;28;20058;-78
2022/10/15 06:03:52;;;;;;;22.13;15.13;;;;;;;16.14;68.82;101207.31;5003680;28;20066;-78
2022/10/15 06:06:26;;;;;;;23.13;14.77;;;;;;;16.30;69.09;101228.84;5003983;28;20050;-77
2022/10/15 06:08:54;;;;;;;27.35;16.02;;;;;;;16.09;68.97;101199.72;4990718;28;20042;-78
2022/10/15 06:11:21;;;;;;;31.85;16.10;;;;;;;16.33;68.71;101233.88;5004521;28;20054;-77
2022/10/15 06:13:47;;;;;;;29.85;16.70;;;;;;;16.26;69.15;101227.47;4987853;28;20124;-77
2022/10/15 06:16:17;;;;;;;28.30;17.67;;;;;;;16.39;69.02;101241.28;4988454;28;20508;-76
2022/10/15 06:18:51;;;;;;;26.05;16.63;;;;;;;15.86;68.91;101153.91;4987751;28;20409;-77
2022/10/15 06:21:17;;;;;;;26.20;16.77;;;;;;;16.36;68.75;101238.94;4988680;28;20086;-78
2022/10/15 06:23:44;;;;;;;33.47;17.23;;;;;;;16.36;68.64;101225.53;5003785;28;20399;-77
2022/10/15 06:26:14;;;;;;;36.55;19.10;;;;;;;16.23;68.69;101184.94;4987154;28;20054;-78
2022/10/15 06:28:41;;;;;;;19.30;14.15;;;;;;;16.88;68.61;101236.19;5003725;28;20233;-78
2022/10/15 06:31:07;;;;;;;29.90;18.17;;;;;;;16.89;66.26;101175.34;4987347;28;20053;-78
2022/10/15 06:33:34;;;;;;;32.97;20.27;;;;;;;17.14;65.75;101210.28;5003291;28;20047;-76
2022/10/15 06:36:07;;;;;;;40.38;18.98;;;;;;;16.88;66.98;101201.31;5003152;28;20052;-76
2022/10/15 06:38:34;;;;;;;32.38;21.58;;;;;;;16.87;67.36;101220.28;4967541;28;20145;-77
2022/10/15 06:41:06;;;;;;;33.97;21.35;;;;;;;16.77;67.69;101225.72;4968805;28;20051;-79
2022/10/15 06:43:34;;;;;;;36.88;22.42;;;;;;;16.70;68.17;101235.41;4967836;28;20461;-78
2022/10/15 06:46:02;;;;;;;45.85;23.50;;;;;;;16.22;69.14;101189.44;4966273;28;20367;-77
2022/10/15 06:48:29;;;;;;;43.65;22.83;;;;;;;16.44;69.31;101230.94;4972282;28;20043;-77
2022/10/15 06:50:58;;;;;;;42.95;23.30;;;;;;;16.40;69.60;101216.16;4987886;28;20129;-77
2022/10/15 06:53:26;;;;;;;38.60;22.17;;;;;;;16.55;69.11;101240.53;4989910;28;20493;-78
2022/10/15 06:56:01;;;;;;;42.65;24.02;;;;;;;16.63;69.10;101237.06;5007710;28;20526;-76
2022/10/15 06:58:28;;;;;;;47.60;25.65;;;;;;;16.67;68.86;101241.09;5024338;28;20518;-77
2022/10/15 07:01:03;;;;;;;36.03;24.05;;;;;;;16.62;68.22;101208.56;5002083;28;20149;-80
2022/10/15 07:03:30;;;;;;;36.25;23.40;;;;;;;16.85;68.18;101244.56;4987661;28;20116;-80
2022/10/15 07:06:08;;;;;;;37.30;21.73;;;;;;;16.68;67.58;101199.88;4988021;28;20052;-78
2022/10/15 07:08:35;;;;;;;39.92;23.27;;;;;;;16.82;67.60;101207.34;4987588;28;20306;-76
2022/10/15 07:11:08;;;;;;;39.00;23.98;;;;;;;16.85;67.47;101195.44;4988118;28;20123;-77
2022/10/15 07:13:34;;;;;;;46.58;25.55;;;;;;;17.11;67.49;101237.41;4989206;28;20047;-77
2022/10/15 07:16:06;;;;;;;39.80;24.15;;;;;;;17.14;67.36;101229.91;4988172;28;20093;-78
2022/10/15 07:18:34;;;;;;;36.55;22.85;;;;;;;17.27;67.11;101251.72;5004516;28;20085;-79
2022/10/15 07:21:04;;;;;;;45.97;24.05;;;;;;;17.35;67.19;101258.94;4990215;28;20054;-78
2022/10/15 07:23:31;;;;;;;40.63;24.83;;;;;;;17.27;66.76;101249.03;4990203;28;20046;-79
2022/10/15 07:25:59;;;;;;;47.15;25.77;;;;;;;17.47;66.49;101264.81;4974901;28;20074;-79
2022/10/15 07:28:26;;;;;;;51.00;29.02;;;;;;;17.38;66.58;101250.56;4984873;28;20057;-76
2022/10/15 07:30:53;;;;;;;44.20;27.98;;;;;;;17.51;66.21;101268.88;4984727;28;20149;-78
2022/10/15 07:33:20;;;;;;;46.33;27.17;;;;;;;17.56;65.66;101274.59;5001489;28;20069;-78
2022/10/15 07:35:46;;;;;;;46.13;28.00;;;;;;;17.52;66.10;101251.75;5006862;28;20081;-78
2022/10/15 07:38:13;;;;;;;52.42;29.38;;;;;;;17.60;66.25;101254.47;4992805;28;20061;-79
2022/10/15 07:40:39;;;;;;;58.00;29.00;;;;;;;17.67;65.72;101266.22;4988581;28;20294;-78
2022/10/15 07:43:06;;;;;;;55.33;30.70;;;;;;;17.85;65.90;101275.97;4986688;28;20054;-76
2022/10/15 07:45:34;;;;;;;69.95;37.75;;;;;;;17.88;64.40;101267.56;4987981;28;20053;-79
2022/10/15 07:48:02;;;;;;;69.70;37.75;;;;;;;17.95;64.60;101279.34;4983645;28;20552;-79
2022/10/15 07:50:33;;;;;;;61.72;33.40;;;;;;;17.93;63.61;101265.22;5003255;28;20054;-77
2022/10/15 07:53:05;;;;;;;52.25;32.10;;;;;;;17.49;63.97;101195.72;5004090;28;20048;-78
2022/10/15 07:55:32;;;;;;;69.50;40.58;;;;;;;17.76;63.43;101232.13;4987009;28;20089;-77
2022/10/15 07:57:59;;;;;;;73.03;39.22;;;;;;;17.94;63.40;101269.59;4987445;28;20046;-77
2022/10/15 08:00:26;;;;;;;69.20;37.83;;;;;;;17.57;62.86;101193.03;4992374;28;20074;-77
2022/10/15 08:02:52;;;;;;;52.05;31.70;;;;;;;18.10;63.61;101268.75;4999650;28;20069;-78
2022/10/15 08:05:20;;;;;;;58.80;37.63;;;;;;;18.23;63.32;101297.78;5003125;28;20554;-78
2022/10/15 08:07:47;;;;;;;78.45;44.97;;;;;;;18.20;62.87;101284.69;4998730;28;20068;-79
2022/10/15 08:10:14;;;;;;;66.72;39.50;;;;;;;18.31;62.55;101289.72;5006546;28;20411;-78
2022/10/15 08:12:41;;;;;;;75.82;42.95;;;;;;;18.25;62.76;101268.88;5007029;28;20359;-78
2022/10/15 08:15:09;;;;;;;66.57;40.88;;;;;;;18.18;62.74;101262.50;5006427;28;20060;-77
2022/10/15 08:17:36;;;;;;;66.60;39.58;;;;;;;18.37;62.76;101289.03;5006766;28;20042;-78
2022/10/15 08:20:03;;;;;;;67.13;40.22;;;;;;;18.26;62.58;101267.91;5006647;28;20133;-79
2022/10/15 08:22:30;;;;;;;69.70;42.50;;;;;;;18.04;63.32;101227.28;5002140;28;20042;-79
2022/10/15 08:24:56;;;;;;;71.63;43.78;;;;;;;18.46;62.41;101277.25;5006411;28;20054;-78
2022/10/15 08:27:23;;;;;;;70.30;43.75;;;;;;;18.34;62.97;101255.25;5002790;28;20424;-77
2022/10/15 08:29:50;;;;;;;81.70;45.97;;;;;;;18.60;62.44;101294.53;4974221;28;20062;-77
2022/10/15 08:32:17;;;;;;;82.43;45.63;;;;;;;18.67;62.46;101283.94;5004342;28;20532;-78
2022/10/15 08:34:44;;;;;;;77.20;45.33;;;;;;;18.68;61.83;101277.53;4988865;28;20052;-78
2022/10/15 08:37:11;;;;;;;83.72;48.15;;;;;;;18.56;61.20;101234.03;5002208;28;20445;-77
2022/10/15 08:39:37;;;;;;;84.30;46.97;;;;;;;18.55;61.12;101227.81;4977862;28;20066;-78
2022/10/15 08:42:19;;;;;;;83.88;47.65;;;;;;;18.92;60.80;101277.47;5003030;28;20212;-79
2022/10/15 08:45:01;;;;;;;82.05;44.72;;;;;;;18.95;61.51;101284.34;5002861;28;20077;-78
2022/10/15 08:47:33;;;;;;;89.68;52.75;;;;;;;19.13;59.97;101262.59;4986538;28;20054;-78
2022/10/15 08:50:11;;;;;;;85.47;50.85;;;;;;;19.32;59.68;101278.28;4985956;28;20109;-77
2022/10/15 08:52:43;;;;;;;91.38;51.25;;;;;;;19.41;59.95;101297.91;5002764;28;20392;-78
2022/10/15 08:55:13;;;;;;;70.82;36.67;;;;;;;18.90;60.37;101214.91;4987640;28;20512;-77
2022/10/15 08:57:58;;;;;;;85.93;47.60;;;;;;;18.99;59.55;101208.47;5003150;28;20412;-77
2022/10/15 09:00:34;;;;;;;93.95;51.67;;;;;;;19.58;59.48;101293.25;4986877;28;20074;-76
2022/10/15 09:03:16;;;;;;;84.00;47.53;;;;;;;19.76;59.03;101307.31;4987576;28;20213;-77
2022/10/15 09:06:17;;;;;;;70.13;40.67;;;;;;;19.84;59.20;101304.53;4999382;28;20630;-75
2022/10/15 09:09:02;;;;;;;78.47;43.95;;;;;;;19.94;58.89;101312.38;4987651;28;20068;-78
2022/10/15 09:11:28;;;;;;;82.15;46.33;;;;;;;20.18;57.97;101311.34;4997827;28;20125;-78
2022/10/15 09:13:56;;;;;;;83.82;45.03;;;;;;;20.23;58.16;101308.09;5005162;28;20125;-78
2022/10/15 09:16:28;;;;;;;79.63;47.88;;;;;;;20.04;58.27;101271.69;4990788;28;20051;-79
2022/10/15 09:18:57;;;;;;;87.15;45.45;;;;;;;20.46;57.25;101305.31;4992084;28;20427;-78
2022/10/15 09:21:25;;;;;;;64.32;37.25;;;;;;;20.39;57.67;101299.00;4990351;28;20572;-77
2022/10/15 09:23:59;;;;;;;52.97;31.23;;;;;;;20.51;57.69;101297.53;4990700;28;20050;-77
2022/10/15 09:26:50;;;;;;;76.95;47.33;;;;;;;20.73;57.18;101324.63;4991554;28;20090;-78
2022/10/15 09:29:32;;;;;;;75.45;42.70;;;;;;;20.87;57.17;101313.00;4990418;28;20054;-78
2022/10/15 09:32:10;;;;;;;78.72;46.20;;;;;;;20.57;56.95;101256.38;4990716;28;20057;-77
2022/10/15 09:35:00;;;;;;;74.05;44.78;;;;;;;21.21;55.13;101314.25;4991155;28;20057;-78
2022/10/15 09:37:59;;;;;;;74.95;43.05;;;;;;;21.26;54.61;101295.63;5009845;28;20034;-76
2022/10/15 09:40:38;;;;;;;68.10;37.63;;;;;;;21.15;55.55;101290.75;4990982;28;20062;-78
2022/10/15 09:43:05;;;;;;;63.50;39.35;;;;;;;21.33;55.59;101318.16;4990213;28;20042;-77
2022/10/15 09:45:32;;;;;;;65.90;36.65;;;;;;;21.39;55.16;101317.44;4989633;28;20076;-79
2022/10/15 09:48:00;;;;;;;71.05;42.70;;;;;;;20.83;55.22;101201.09;4989771;28;20050;-77
2022/10/15 09:50:43;;;;;;;58.55;35.08;;;;;;;21.67;54.85;101313.97;5006018;28;20061;-75
2022/10/15 09:53:39;;;;;;;64.57;36.45;;;;;;;21.71;54.10;101315.28;5006389;28;20148;-79
2022/10/15 09:56:11;;;;;;;70.55;39.40;;;;;;;20.86;54.14;101158.34;4989714;28;20448;-79
2022/10/15 09:58:53;;;;;;;66.28;35.20;;;;;;;22.01;53.47;101312.44;4989126;28;20459;-79
2022/10/15 10:01:29;;;;;;;76.05;43.83;;;;;;;22.09;52.72;101310.44;4989543;28;20062;-78
2022/10/15 10:04:32;;;;;;;62.08;38.15;;;;;;;22.23;52.82;101327.63;5002152;28;20065;-78
2022/10/15 10:07:08;;;;;;;49.28;28.83;;;;;;;22.24;53.38;101315.78;4973831;28;20050;-78
2022/10/15 10:09:52;;;;;;;47.78;30.42;;;;;;;22.01;53.39;101266.47;4988976;28;20104;-78
2022/10/15 10:12:22;;;;;;;72.10;40.88;;;;;;;22.35;52.89;101312.53;5005093;28;20062;-78
2022/10/15 10:15:03;;;;;;;54.80;33.45;;;;;;;22.44;52.00;101301.56;5005232;28;20054;-78
2022/10/15 10:17:30;;;;;;;58.83;37.58;;;;;;;22.38;52.51;101303.22;4990254;28;20056;-77
2022/10/15 10:20:18;;;;;;;62.17;37.85;;;;;;;22.55;51.49;101314.53;5009380;28;20480;-78
2022/10/15 10:22:52;;;;;;;63.47;36.97;;;;;;;22.55;51.65;101314.53;4970037;28;20157;-77
2022/10/15 10:25:39;;;;;;;52.75;31.30;;;;;;;22.61;52.47;101319.16;4970541;28;20063;-78
2022/10/15 10:28:16;;;;;;;47.35;29.13;;;;;;;22.49;51.91;101291.00;4990303;28;20046;-78
2022/10/15 10:30:51;;;;;;;36.47;22.13;;;;;;;22.76;52.34;101309.03;5005411;28;20136;-78
2022/10/15 10:33:30;;;;;;;33.72;21.02;;;;;;;22.79;51.53;101287.03;4987748;28;20460;-78
2022/10/15 10:35:58;;;;;;;53.90;30.02;;;;;;;22.86;51.27;101314.09;4988378;28;20046;-79
2022/10/15 10:38:25;;;;;;;32.75;22.13;;;;;;;21.67;51.97;101122.97;4988703;28;20085;-79
2022/10/15 10:40:59;;;;;;;38.60;22.75;;;;;;;22.97;51.56;101310.84;4994323;28;20168;-78
2022/10/15 10:43:28;;;;;;;33.00;22.10;;;;;;;23.05;51.58;101309.84;5008052;28;20472;-78
2022/10/15 10:45:57;;;;;;;25.70;17.08;;;;;;;23.28;51.05;101308.69;5009494;28;20072;-78
2022/10/15 10:48:27;;;;;;;47.90;29.60;;;;;;;23.18;50.95;101304.50;5025000;28;20054;-77
2022/10/15 10:51:13;;;;;;;23.35;16.48;;;;;;;23.13;51.14;101284.47;5009861;28;20527;-77
2022/10/15 10:53:50;;;;;;;41.35;26.42;;;;;;;23.17;51.34;101308.22;4988105;28;20333;-77
2022/10/15 10:56:22;;;;;;;31.10;21.02;;;;;;;23.18;50.93;101300.94;4988222;28;20050;-78
2022/10/15 10:58:56;;;;;;;51.67;27.63;;;;;;;23.17;50.50;101277.63;4988088;28;20427;-78
2022/10/15 11:01:23;;;;;;;34.47;18.92;;;;;;;23.14;50.37;101276.16;4988447;28;20065;-78
2022/10/15 11:03:50;;;;;;;50.78;28.10;;;;;;;23.02;50.88;101285.91;4988033;28;20054;-78
2022/10/15 11:06:49;;;;;;;47.92;30.63;;;;;;;23.14;49.96;101295.09;5006282;28;20109;-79
2022/10/15 11:09:16;;;;;;;50.13;27.50;;;;;;;22.89;51.14;101288.50;5024490;28;20131;-78
2022/10/15 11:12:04;;;;;;;29.45;19.95;;;;;;;23.02;51.20;101277.78;5006767;28;20069;-78
2022/10/15 11:14:41;;;;;;;24.52;18.58;;;;;;;22.86;51.62;101267.25;5007662;28;20464;-78
2022/10/15 11:17:46;;;;;;;25.58;18.20;;;;;;;22.92;51.59;101293.53;4990860;28;20050;-77
2022/10/15 11:20:30;;;;;;;43.67;28.42;;;;;;;22.65;52.04;101285.28;4987691;28;20081;-79
2022/10/15 11:23:35;;;;;;;31.67;19.80;;;;;;;22.63;52.39;101290.03;4986589;28;20109;-78
2022/10/15 11:26:07;;;;;;;51.22;31.05;;;;;;;22.43;52.07;101272.84;4986835;28;20077;-78
2022/10/15 11:28:53;;;;;;;25.10;17.00;;;;;;;22.47;51.73;101291.19;4986836;28;20181;-77